createdAt,value
2022-09-15T00:00:27.322Z,29.80
2022-09-15T00:02:54.033Z,27.65
2022-09-15T00:05:20.638Z,26.55
2022-09-15T00:07:47.249Z,21.75
2022-09-15T00:10:13.976Z,24.15
2022-09-15T00:12:40.567Z,26.77
2022-09-15T00:15:07.755Z,28.15
2022-09-15T00:17:34.273Z,26.88
2022-09-15T00:20:00.841Z,25.80
2022-09-15T00:22:28.112Z,27.40
2022-09-15T00:24:54.620Z,27.95
2022-09-15T00:27:21.216Z,26.63
2022-09-15T00:29:47.686Z,28.38
2022-09-15T00:32:14.183Z,23.70
2022-09-15T00:34:40.632Z,26.92
2022-09-15T00:37:07.188Z,26.58
2022-09-15T00:39:33.904Z,24.42
2022-09-15T00:42:00.340Z,22.05
2022-09-15T00:44:35.837Z,24.63
2022-09-15T00:47:18.643Z,25.25
2022-09-15T00:49:49.150Z,24.58
2022-09-15T00:52:23.488Z,26.52
2022-09-15T00:54:53.920Z,22.67
2022-09-15T00:57:25.816Z,26.98
2022-09-15T00:59:55.459Z,25.23
2022-09-15T01:02:28.093Z,23.60
2022-09-15T01:04:58.523Z,26.40
2022-09-15T01:07:49.868Z,25.40
2022-09-15T01:10:24.492Z,26.15
2022-09-15T01:12:52.328Z,24.15
2022-09-15T01:15:20.949Z,23.27
2022-09-15T01:18:23.778Z,27.50
2022-09-15T01:20:56.379Z,28.48
2022-09-15T01:23:44.894Z,24.42
2022-09-15T01:26:42.348Z,31.45
2022-09-15T01:29:27.500Z,59.42
2022-09-15T01:32:43.318Z,49.78
2022-09-15T01:35:15.412Z,45.97
2022-09-15T01:37:53.456Z,42.10
2022-09-15T01:40:23.202Z,39.20
2022-09-15T01:42:52.665Z,34.40
2022-09-15T01:45:23.638Z,33.00
2022-09-15T01:47:54.164Z,28.55
2022-09-15T01:50:25.442Z,30.63
2022-09-15T01:52:57.013Z,28.58
2022-09-15T01:55:32.338Z,29.58
2022-09-15T01:57:59.577Z,32.33
2022-09-15T02:00:26.059Z,26.58
2022-09-15T02:02:58.662Z,27.80
2022-09-15T02:06:01.885Z,26.00
2022-09-15T02:08:38.358Z,25.55
2022-09-15T02:11:19.985Z,24.40
2022-09-15T02:13:57.606Z,28.42
2022-09-15T02:16:27.999Z,29.02
2022-09-15T02:19:19.683Z,27.23
2022-09-15T02:22:15.077Z,27.30
2022-09-15T02:24:50.095Z,29.77
2022-09-15T02:27:22.984Z,25.75
2022-09-15T02:29:51.868Z,31.88
2022-09-15T02:32:23.286Z,26.50
2022-09-15T02:34:54.467Z,26.08
2022-09-15T02:37:22.966Z,26.90
2022-09-15T02:39:57.823Z,29.10
2022-09-15T02:42:26.185Z,28.23
2022-09-15T02:44:53.580Z,27.73
2022-09-15T02:47:20.696Z,25.08
2022-09-15T02:49:47.148Z,24.60
2022-09-15T02:52:13.756Z,22.90
2022-09-15T02:54:40.311Z,29.27
2022-09-15T02:57:06.921Z,23.45
2022-09-15T02:59:52.320Z,23.25
2022-09-15T03:02:20.560Z,24.20
2022-09-15T03:04:48.104Z,22.20
2022-09-15T03:07:15.004Z,19.83
2022-09-15T03:09:41.922Z,26.23
2022-09-15T03:12:08.929Z,28.10
2022-09-15T03:14:35.488Z,27.75
2022-09-15T03:17:02.932Z,24.27
2022-09-15T03:19:29.451Z,25.75
2022-09-15T03:21:55.881Z,23.70
2022-09-15T03:24:23.050Z,23.88
2022-09-15T03:26:49.593Z,23.35
2022-09-15T03:29:16.333Z,24.55
2022-09-15T03:31:42.973Z,23.58
2022-09-15T03:34:09.551Z,22.15
2022-09-15T03:36:35.993Z,22.73
2022-09-15T03:39:02.724Z,22.85
2022-09-15T03:41:29.362Z,23.50
2022-09-15T03:43:56.605Z,25.98
2022-09-15T03:46:23.176Z,22.50
2022-09-15T03:48:49.624Z,21.63
2022-09-15T03:51:16.194Z,24.27
2022-09-15T03:53:42.789Z,22.23
2022-09-15T03:56:10.940Z,25.05
2022-09-15T03:58:37.450Z,25.42
2022-09-15T04:01:04.491Z,29.20
2022-09-15T04:03:31.630Z,27.13
2022-09-15T04:05:58.340Z,21.90
2022-09-15T04:08:24.845Z,26.38
2022-09-15T04:10:51.278Z,23.52
2022-09-15T04:13:17.752Z,27.90
2022-09-15T04:15:44.599Z,21.15
2022-09-15T04:18:11.063Z,19.00
2022-09-15T04:20:41.418Z,19.60
2022-09-15T04:23:07.854Z,18.85
2022-09-15T04:25:34.309Z,22.52
2022-09-15T04:28:00.958Z,23.13
2022-09-15T04:30:27.497Z,18.80
2022-09-15T04:32:53.999Z,19.58
2022-09-15T04:35:21.872Z,22.80
2022-09-15T04:37:48.372Z,22.75
2022-09-15T04:40:14.937Z,23.40
2022-09-15T04:42:41.437Z,21.65
2022-09-15T04:45:08.407Z,25.85
2022-09-15T04:47:34.880Z,19.85
2022-09-15T04:50:01.563Z,24.23
2022-09-15T04:52:28.059Z,19.02
2022-09-15T04:54:54.576Z,19.35
2022-09-15T04:57:21.046Z,23.42
2022-09-15T04:59:47.513Z,23.73
2022-09-15T05:02:14.034Z,20.27
2022-09-15T05:04:40.490Z,23.88
2022-09-15T05:07:06.964Z,24.90
2022-09-15T05:09:33.435Z,25.52
2022-09-15T05:11:59.939Z,25.10
2022-09-15T05:14:26.485Z,32.40
2022-09-15T05:16:52.970Z,24.02
2022-09-15T05:19:19.694Z,23.38
2022-09-15T05:21:46.215Z,23.17
2022-09-15T05:24:12.800Z,27.13
2022-09-15T05:26:39.567Z,27.10
2022-09-15T05:29:06.077Z,24.20
2022-09-15T05:31:36.466Z,22.48
2022-09-15T05:34:05.527Z,22.42
2022-09-15T05:36:32.639Z,21.88
2022-09-15T05:39:00.173Z,25.92
2022-09-15T05:41:28.551Z,23.05
2022-09-15T05:43:59.609Z,31.67
2022-09-15T05:46:27.364Z,24.60
2022-09-15T05:48:56.357Z,21.35
2022-09-15T05:51:23.107Z,22.52
2022-09-15T05:53:49.672Z,24.42
2022-09-15T05:56:17.418Z,23.25
2022-09-15T05:58:46.486Z,23.73
2022-09-15T06:01:16.317Z,22.55
2022-09-15T06:03:43.447Z,22.27
2022-09-15T06:06:10.466Z,27.48
2022-09-15T06:08:43.908Z,28.55
2022-09-15T06:11:17.341Z,21.92
2022-09-15T06:13:46.472Z,26.73
2022-09-15T06:16:15.883Z,24.92
2022-09-15T06:18:42.490Z,24.35
2022-09-15T06:21:12.373Z,26.92
2022-09-15T06:23:39.473Z,30.63
2022-09-15T06:26:09.389Z,27.42
2022-09-15T06:28:36.020Z,25.48
2022-09-15T06:31:03.016Z,26.27
2022-09-15T06:33:29.994Z,29.42
2022-09-15T06:35:56.539Z,27.00
2022-09-15T06:38:22.995Z,26.42
2022-09-15T06:40:57.078Z,27.42
2022-09-15T06:43:24.313Z,32.67
2022-09-15T06:45:50.996Z,25.08
2022-09-15T06:48:24.563Z,24.85
2022-09-15T06:50:55.446Z,30.50
2022-09-15T06:53:22.191Z,24.17
2022-09-15T06:55:48.741Z,28.63
2022-09-15T06:58:15.453Z,26.23
2022-09-15T07:00:42.962Z,28.77
2022-09-15T07:03:09.587Z,30.95
2022-09-15T07:05:36.261Z,30.30
2022-09-15T07:08:03.021Z,28.02
2022-09-15T07:10:29.510Z,30.52
2022-09-15T07:12:56.017Z,26.30
2022-09-15T07:15:24.838Z,28.25
2022-09-15T07:17:51.316Z,23.73
2022-09-15T07:20:17.814Z,23.48
2022-09-15T07:22:44.296Z,25.52
2022-09-15T07:25:10.810Z,24.00
2022-09-15T07:27:37.349Z,25.48
2022-09-15T07:30:08.422Z,23.98
2022-09-15T07:32:35.116Z,23.65
2022-09-15T07:35:02.277Z,22.33
2022-09-15T07:37:28.864Z,25.10
2022-09-15T07:39:55.399Z,25.67
2022-09-15T07:42:21.921Z,25.98
2022-09-15T07:44:48.374Z,24.25
2022-09-15T07:47:14.837Z,26.23
2022-09-15T07:49:42.109Z,23.33
2022-09-15T07:52:08.713Z,39.17
2022-09-15T07:54:35.183Z,26.83
2022-09-15T07:57:01.916Z,27.75
2022-09-15T07:59:28.508Z,29.55
2022-09-15T08:01:55.163Z,28.50
2022-09-15T08:04:21.676Z,27.98
2022-09-15T08:06:48.135Z,25.40
2022-09-15T08:09:17.308Z,23.50
2022-09-15T08:11:44.074Z,26.30
2022-09-15T08:14:10.918Z,24.92
2022-09-15T08:16:38.481Z,24.65
2022-09-15T08:19:05.329Z,20.77
2022-09-15T08:21:31.867Z,20.95
2022-09-15T08:23:59.729Z,20.85
2022-09-15T08:26:28.404Z,18.35
2022-09-15T08:28:54.933Z,19.92
2022-09-15T08:31:23.947Z,20.27
2022-09-15T08:33:53.181Z,20.23
2022-09-15T08:36:20.008Z,19.40
2022-09-15T08:38:47.402Z,18.17
2022-09-15T08:41:28.905Z,22.33
2022-09-15T08:44:29.381Z,17.58
2022-09-15T08:47:16.731Z,15.02
2022-09-15T08:49:51.873Z,14.63
2022-09-15T08:52:21.355Z,10.48
2022-09-15T08:54:50.851Z,9.82
2022-09-15T08:57:22.272Z,13.38
2022-09-15T08:59:48.857Z,10.07
2022-09-15T09:03:03.191Z,12.68
2022-09-15T09:05:45.558Z,13.15
2022-09-15T09:08:30.797Z,12.38
2022-09-15T09:11:06.174Z,10.70
2022-09-15T09:13:51.327Z,13.68
2022-09-15T09:17:07.821Z,11.45
2022-09-15T09:20:12.666Z,13.18
2022-09-15T09:22:42.861Z,10.38
2022-09-15T09:25:26.689Z,14.15
2022-09-15T09:27:56.312Z,9.25
2022-09-15T09:30:25.007Z,11.02
2022-09-15T09:33:30.133Z,7.10
2022-09-15T09:35:59.731Z,10.65
2022-09-15T09:38:34.948Z,8.82
2022-09-15T09:41:04.897Z,8.43
2022-09-15T09:43:32.333Z,4.38
2022-09-15T09:45:59.736Z,6.57
2022-09-15T09:48:28.640Z,9.57
2022-09-15T09:50:55.706Z,5.60
2022-09-15T09:53:30.988Z,4.70
2022-09-15T09:56:17.106Z,4.43
2022-09-15T09:58:44.743Z,7.00
2022-09-15T10:01:18.966Z,4.93
2022-09-15T10:03:46.380Z,8.52
2022-09-15T10:06:14.530Z,4.35
2022-09-15T10:08:59.321Z,4.68
2022-09-15T10:11:47.683Z,4.32
2022-09-15T10:14:21.837Z,6.70
2022-09-15T10:17:08.909Z,7.82
2022-09-15T10:19:50.776Z,6.95
2022-09-15T10:22:35.739Z,7.13
2022-09-15T10:25:23.698Z,5.63
2022-09-15T10:28:16.818Z,7.25
2022-09-15T10:31:02.234Z,8.32
2022-09-15T10:33:47.578Z,11.03
2022-09-15T10:36:17.433Z,6.57
2022-09-15T10:38:46.771Z,6.18
2022-09-15T10:41:32.671Z,6.47
2022-09-15T10:44:19.351Z,5.45
2022-09-15T10:47:01.063Z,6.80
2022-09-15T10:49:56.937Z,4.43
2022-09-15T10:52:39.308Z,4.60
2022-09-15T10:55:51.234Z,3.08
2022-09-15T10:58:47.748Z,4.10
2022-09-15T11:01:32.282Z,5.63
2022-09-15T11:04:21.566Z,2.85
2022-09-15T11:07:26.197Z,5.47
2022-09-15T11:10:17.023Z,2.45
2022-09-15T11:12:46.455Z,9.20
2022-09-15T11:15:19.057Z,4.60
2022-09-15T11:18:01.985Z,4.80
2022-09-15T11:20:28.363Z,3.95
2022-09-15T11:23:04.606Z,6.90
2022-09-15T11:25:42.348Z,5.13
2022-09-15T11:28:24.590Z,10.38
2022-09-15T11:30:58.582Z,6.82
2022-09-15T11:33:43.938Z,4.03
2022-09-15T11:36:17.792Z,3.85
2022-09-15T11:38:54.639Z,4.22
2022-09-15T11:41:34.164Z,5.53
2022-09-15T11:44:16.814Z,3.88
2022-09-15T11:47:05.237Z,5.57
2022-09-15T11:49:40.625Z,3.08
2022-09-15T11:52:22.563Z,3.92
2022-09-15T11:54:57.422Z,3.17
2022-09-15T11:57:36.501Z,7.25
2022-09-15T12:00:03.323Z,4.75
2022-09-15T12:02:51.638Z,3.67
2022-09-15T12:05:24.016Z,2.33
2022-09-15T12:07:59.397Z,6.45
2022-09-15T12:10:31.796Z,3.75
2022-09-15T12:13:00.484Z,2.60
2022-09-15T12:15:27.290Z,5.53
2022-09-15T12:18:34.348Z,3.65
2022-09-15T12:21:22.730Z,2.30
2022-09-15T12:24:12.283Z,5.28
2022-09-15T12:26:39.608Z,7.40
2022-09-15T12:29:21.468Z,4.72
2022-09-15T12:31:47.972Z,6.55
2022-09-15T12:34:38.431Z,10.00
2022-09-15T12:37:13.645Z,6.80
2022-09-15T12:39:44.391Z,8.80
2022-09-15T12:42:10.831Z,4.47
2022-09-15T12:44:43.293Z,9.05
2022-09-15T12:47:25.484Z,5.70
2022-09-15T12:49:56.315Z,2.05
2022-09-15T12:52:25.255Z,5.85
2022-09-15T12:55:02.064Z,4.65
2022-09-15T12:57:36.226Z,5.70
2022-09-15T13:00:20.935Z,4.07
2022-09-15T13:02:49.375Z,7.03
2022-09-15T13:05:41.680Z,5.82
2022-09-15T13:08:33.357Z,7.43
2022-09-15T13:11:04.549Z,4.70
2022-09-15T13:13:43.753Z,5.07
2022-09-15T13:16:51.665Z,12.38
2022-09-15T13:19:33.041Z,7.03
2022-09-15T13:22:11.642Z,13.88
2022-09-15T13:25:01.799Z,5.40
2022-09-15T13:27:36.304Z,7.30
2022-09-15T13:30:10.006Z,5.03
2022-09-15T13:33:12.091Z,7.50
2022-09-15T13:35:48.729Z,9.23
2022-09-15T13:38:31.682Z,8.27
2022-09-15T13:41:18.252Z,6.80
2022-09-15T13:44:10.070Z,6.07
2022-09-15T13:47:12.155Z,5.53
2022-09-15T13:50:04.794Z,5.72
2022-09-15T13:52:37.249Z,6.88
2022-09-15T13:55:27.984Z,10.32
2022-09-15T14:01:02.155Z,6.43
2022-09-15T14:03:51.627Z,9.10
2022-09-15T14:06:23.171Z,11.10
2022-09-15T14:08:57.246Z,6.22
2022-09-15T14:11:28.680Z,5.97
2022-09-15T14:13:56.653Z,7.63
2022-09-15T14:16:30.661Z,6.85
2022-09-15T14:18:59.977Z,5.53
2022-09-15T14:21:29.751Z,8.05
2022-09-15T14:23:59.708Z,5.45
2022-09-15T14:26:32.945Z,6.88
2022-09-15T14:29:02.416Z,5.35
2022-09-15T14:31:30.553Z,7.35
2022-09-15T14:33:57.594Z,2.78
2022-09-15T14:36:32.558Z,2.33
2022-09-15T14:39:22.097Z,1.80
2022-09-15T14:41:50.276Z,2.70
2022-09-15T14:47:21.732Z,2.67
2022-09-15T14:52:29.033Z,5.82
2022-09-15T14:55:03.168Z,1.88
2022-09-15T14:57:33.744Z,1.90
2022-09-15T15:00:07.371Z,2.28
2022-09-15T15:03:14.770Z,1.88
2022-09-15T15:06:02.767Z,3.08
2022-09-15T15:08:46.491Z,3.90
2022-09-15T15:11:15.966Z,4.05
2022-09-15T15:13:48.313Z,2.10
2022-09-15T15:16:26.582Z,2.83
2022-09-15T15:18:56.115Z,3.33
2022-09-15T15:21:37.605Z,2.10
2022-09-15T15:24:13.020Z,3.17
2022-09-15T15:26:42.180Z,5.10
2022-09-15T15:29:44.485Z,4.93
2022-09-15T15:32:16.323Z,2.78
2022-09-15T15:34:55.707Z,3.83
2022-09-15T15:37:29.590Z,4.38
2022-09-15T15:39:58.581Z,3.45
2022-09-15T15:42:27.708Z,4.43
2022-09-15T15:45:00.297Z,5.72
2022-09-15T15:47:30.761Z,3.65
2022-09-15T15:50:13.686Z,3.95
2022-09-15T15:52:41.641Z,4.78
2022-09-15T15:55:08.436Z,19.30
2022-09-15T15:57:38.990Z,2.65
2022-09-15T16:00:32.697Z,7.32
2022-09-15T16:02:59.298Z,2.90
2022-09-15T16:05:27.575Z,1.67
2022-09-15T16:07:56.509Z,6.20
2022-09-15T16:10:27.944Z,4.82
2022-09-15T16:12:54.425Z,3.50
2022-09-15T16:15:21.600Z,7.03
2022-09-15T16:17:48.946Z,3.97
2022-09-15T16:20:16.571Z,3.63
2022-09-15T16:22:43.466Z,6.78
2022-09-15T16:25:14.684Z,3.85
2022-09-15T16:27:41.303Z,5.57
2022-09-15T16:30:11.982Z,3.80
2022-09-15T16:32:41.935Z,9.68
2022-09-15T16:35:33.617Z,3.72
2022-09-15T16:38:00.131Z,3.92
2022-09-15T16:40:26.780Z,4.63
2022-09-15T16:42:53.543Z,6.15
2022-09-15T16:45:36.681Z,5.70
2022-09-15T16:52:59.613Z,5.68
2022-09-15T16:55:38.932Z,4.50
2022-09-15T16:58:06.548Z,6.78
2022-09-15T17:00:36.144Z,4.97
2022-09-15T17:03:07.342Z,6.70
2022-09-15T17:05:48.290Z,3.17
2022-09-15T17:08:16.132Z,6.90
2022-09-15T17:10:43.165Z,6.25
2022-09-15T17:13:14.267Z,2.70
2022-09-15T17:15:41.525Z,2.47
2022-09-15T17:18:08.852Z,4.43
2022-09-15T17:20:39.142Z,3.67
2022-09-15T17:23:25.274Z,3.70
2022-09-15T17:25:53.720Z,3.22
2022-09-15T17:28:22.594Z,3.72
2022-09-15T17:30:51.866Z,4.65
2022-09-15T17:33:20.176Z,6.30
2022-09-15T17:35:47.488Z,4.78
2022-09-15T17:38:14.254Z,5.15
2022-09-15T17:40:41.216Z,3.17
2022-09-15T17:43:14.091Z,1.90
2022-09-15T17:45:40.726Z,4.05
2022-09-15T17:48:07.611Z,2.08
2022-09-15T17:50:35.006Z,5.97
2022-09-15T17:53:01.500Z,3.53
2022-09-15T17:55:33.102Z,3.50
2022-09-15T17:58:02.409Z,7.20
2022-09-15T18:00:31.928Z,2.78
2022-09-15T18:03:00.502Z,2.88
2022-09-15T18:05:31.380Z,4.18
2022-09-15T18:08:03.404Z,2.15
2022-09-15T18:10:32.093Z,4.38
2022-09-15T18:12:58.979Z,7.60
2022-09-15T18:15:29.719Z,3.90
2022-09-15T18:17:58.529Z,2.63
2022-09-15T18:20:27.694Z,4.15
2022-09-15T18:22:55.289Z,6.45
2022-09-15T18:25:28.237Z,4.35
2022-09-15T18:27:55.173Z,4.47
2022-09-15T18:30:23.594Z,2.10
2022-09-15T18:32:50.421Z,3.00
2022-09-15T18:35:19.373Z,4.78
2022-09-15T18:37:54.518Z,4.22
2022-09-15T18:40:21.200Z,7.22
2022-09-15T18:42:47.667Z,4.25
2022-09-15T18:45:17.043Z,3.45
2022-09-15T18:47:47.217Z,5.18
2022-09-15T18:50:14.133Z,6.40
2022-09-15T18:52:41.549Z,5.18
2022-09-15T18:55:15.801Z,7.43
2022-09-15T18:57:42.832Z,5.28
2022-09-15T19:00:15.943Z,3.00
2022-09-15T19:02:42.794Z,2.33
2022-09-15T19:05:15.319Z,4.90
2022-09-15T19:07:45.784Z,3.25
2022-09-15T19:10:16.096Z,5.07
2022-09-15T19:12:43.199Z,6.15
2022-09-15T19:15:11.554Z,4.70
2022-09-15T19:17:39.458Z,2.28
2022-09-15T19:20:08.709Z,3.53
2022-09-15T19:22:36.679Z,1.95
2022-09-15T19:25:04.134Z,3.28
2022-09-15T19:27:30.654Z,4.25
2022-09-15T19:29:57.227Z,3.22
2022-09-15T19:32:23.980Z,2.97
2022-09-15T19:34:50.446Z,3.08
2022-09-15T19:37:19.748Z,3.65
2022-09-15T19:39:47.668Z,3.35
2022-09-15T19:44:43.580Z,21.33
2022-09-15T19:47:10.518Z,6.53
2022-09-15T19:49:37.247Z,4.07
2022-09-15T19:52:06.165Z,5.95
2022-09-15T19:54:34.334Z,2.78
2022-09-15T19:57:01.153Z,4.07
2022-09-15T19:59:31.360Z,3.15
2022-09-15T20:01:59.539Z,2.65
2022-09-15T20:04:26.795Z,5.65
2022-09-15T20:06:53.455Z,1.85
2022-09-15T20:09:20.036Z,5.22
2022-09-15T20:11:46.635Z,6.18
2022-09-15T20:14:13.961Z,4.90
2022-09-15T20:16:41.251Z,2.97
2022-09-15T20:19:07.848Z,3.63
2022-09-15T20:21:52.013Z,4.25
2022-09-15T20:24:20.905Z,4.63
2022-09-15T20:26:48.081Z,7.43
2022-09-15T20:29:14.830Z,4.38
2022-09-15T20:31:41.576Z,4.88
2022-09-15T20:34:08.222Z,3.30
2022-09-15T20:36:38.324Z,3.25
2022-09-15T20:39:08.748Z,5.15
2022-09-15T20:41:35.451Z,3.70
2022-09-15T20:44:02.176Z,4.22
2022-09-15T20:46:31.671Z,6.25
2022-09-15T20:48:58.217Z,4.03
2022-09-15T20:51:27.854Z,1.75
2022-09-15T20:53:56.665Z,6.30
2022-09-15T20:56:25.502Z,8.70
2022-09-15T20:58:54.161Z,3.88
2022-09-15T21:01:39.796Z,2.72
2022-09-15T21:04:08.368Z,5.80
2022-09-15T21:06:35.063Z,7.55
2022-09-15T21:09:02.372Z,4.88
2022-09-15T21:11:29.996Z,2.38
2022-09-15T21:13:57.321Z,8.57
2022-09-15T21:16:26.897Z,2.25
2022-09-15T21:18:54.041Z,3.33
2022-09-15T21:21:29.913Z,5.25
2022-09-15T21:24:00.234Z,3.92
2022-09-15T21:26:29.138Z,4.25
2022-09-15T21:28:56.185Z,2.53
2022-09-15T21:31:31.967Z,7.07
2022-09-15T21:33:59.316Z,7.05
2022-09-15T21:36:28.264Z,2.97
2022-09-15T21:38:56.801Z,4.72
2022-09-15T21:41:26.353Z,3.00
2022-09-15T21:43:54.858Z,10.65
2022-09-15T21:46:28.180Z,3.80
2022-09-15T21:48:56.520Z,4.47
2022-09-15T21:51:25.246Z,5.47
2022-09-15T21:53:57.708Z,4.53
2022-09-15T21:56:25.593Z,5.75
2022-09-15T21:58:52.079Z,6.70
2022-09-15T22:01:25.782Z,4.18
2022-09-15T22:03:55.677Z,4.38
2022-09-15T22:06:30.195Z,3.38
2022-09-15T22:08:58.108Z,6.03
2022-09-15T22:11:24.961Z,3.75
2022-09-15T22:13:51.593Z,5.50
2022-09-15T22:16:21.004Z,1.98
2022-09-15T22:18:47.928Z,3.80
2022-09-15T22:21:23.353Z,5.00
2022-09-15T22:23:51.720Z,8.43
2022-09-15T22:26:20.640Z,3.97
2022-09-15T22:28:47.872Z,7.32
2022-09-15T22:31:16.871Z,5.78
2022-09-15T22:33:43.468Z,3.78
2022-09-15T22:36:14.090Z,5.55
2022-09-15T22:38:40.919Z,4.05
2022-09-15T22:41:11.905Z,4.05
2022-09-15T22:43:40.024Z,8.18
2022-09-15T22:46:07.342Z,4.45
2022-09-15T22:48:34.162Z,4.88
2022-09-15T22:51:00.843Z,6.75
2022-09-15T22:53:27.625Z,6.22
2022-09-15T22:56:05.736Z,4.57
2022-09-15T22:58:33.678Z,4.78
2022-09-15T23:01:09.570Z,4.53
2022-09-15T23:03:37.166Z,3.63
2022-09-15T23:06:05.365Z,3.08
2022-09-15T23:08:32.527Z,3.20
2022-09-15T23:11:10.504Z,5.70
2022-09-15T23:13:38.294Z,5.57
2022-09-15T23:16:05.860Z,7.30
2022-09-15T23:18:34.618Z,2.03
2022-09-15T23:21:07.378Z,2.75
2022-09-15T23:23:39.036Z,4.50
2022-09-15T23:26:07.580Z,1.83
2022-09-15T23:28:34.474Z,5.35
2022-09-15T23:31:01.096Z,3.42
2022-09-15T23:33:29.033Z,4.22
2022-09-15T23:35:58.051Z,2.38
2022-09-15T23:38:24.527Z,3.58
2022-09-15T23:40:51.141Z,2.80
2022-09-15T23:43:17.971Z,6.57
2022-09-15T23:45:45.194Z,2.85
2022-09-15T23:48:13.238Z,4.47
2022-09-15T23:50:40.568Z,4.57
2022-09-15T23:53:07.884Z,3.33
2022-09-15T23:55:34.727Z,3.85
2022-09-15T23:58:01.688Z,2.00
